Troy Municipal Airport
KTOI : now visible

Airfield :











YOU CAN JOIN US ON...

 
LOGIN :

Register | Disclaimer

   EN    FR    IT 

 









Legend :    VFR   Marginal VFR   IFR   Intensive IFR   Very Intensive IFR
Visi :
Ceiling :
>= 8 km
>= 3000ft
5 to 8 km
1000 to 3000 ft
1500m to 5 km
500 to 1000 ft
800 to 1500m
200 to 500 ft
< 800m
< 200 ft
Symbols :   Thunderstorms  Fog  Heavy snow  Heavy precipitations  Wind > 20 kt






- Airport Elevation : 398 ft


KTOI - Troy Municipal

CURRENT METAR :
  • 160953Z AUTO 11004KT 10SM OVC008 15/14 A3010 RMK AO2 SLP188 T01500144

EXPIRED METARs :
  • 160853Z AUTO 16004KT 10SM OVC008 15/15 A3010 RMK AO2 SLP191 T01500150 53005
  • 160753Z AUTO 15003KT 10SM OVC009 15/15 A3009 RMK AO2 SLP188 T01500150

TAF KTOI
Valid from the 16 at 06:00 until the 17 at 06:00 UTC


160549Z 1606/1706 18007KT P6SM OVC009
FM160900 15004KT 3SM BR OVC009
FM161400 14009KT P6SM OVC025
FM162100 18009G18KT P6SM VCSH OVC035
FM170400 17011G20KT P6SM TSRA OVC024CB



MET'MAP, your aeronautical weather chart ! - Copyright ORBIFLY December 2007 - Disclaimer

ORBIFLY MET'MAP TEAM :

Programming & Development : Alexandra Zaïnal
Concept & original design : Baudouin d'Aumeries
Assistance for programming : Marc-Olivier Méhu
Technical & hardware support : Manuel Goepfert

Contact : metmap@orbifly.com




SOURCES & CREDITS :

   NOAA       Earth
Advisory